Accueil
METAR-TAF:

METAR-TAF

Aéroports :

Aéroport de Nouadhibou

Nouadhibou, Mauritanie

latitude: 20-56N, longitude: 017-02W, altitude: 5 m

Observation

Le bulletin a été fait il y a 1 heure et 0 minutes, à 15:00 UTC
Vent 11 kt de nord/nord-ouest
Température 27°C
Humidité 66%
Pression 1013 hPa
Visibilité: 6000 m

METAR: GQPP 191500Z 33011KT 6000 NSC 27/20 Q1013 NOSIG

Heure: 16:00 (16:00 UTC)

Prévision

Le bulletin a été fait il y a 3 heures et 24 minutes, à 12:36 UTC
Prévision valable du 19 à 12 UTC au 20 à 12 UTC
Vent 10 kt de nord-est
Visibilité: 6000 m
Evoluant progressivement
du 19 à 14 UTC au 19 à 16 UTC
Vent 12 kt de nord

TAF: GQPP 191236Z 1912/2012 05010KT 6000 NSC BECMG 1914/1916 35012KT

Observations et prévisions météorologiques de plus de 4000 aéroports (messages METAR et TAF).

Les stations disponibles sont représentées par des disques jaunes et rouges sur la carte.

Passer la souris dessus pour voir le nom de la station.

Cliquer dessus pour voir les observations et prévisions météorologiques.

Pour changer de carte: cliquez sur les boutons verts avec une croix noire pour zoomer, sur le bouton vert avec un tiret pour effectuer un zoom arrière, ou sur les flèches vertes pour les cartes adjacentes.


METAR-TAF: